< Typhoon 196430 1964 Season Typhoon 196432 >
Typhoon 196431 (LOUISE)
General InformationTrack Information on Google Maps || Disaster Info.ResourceGoogle EarthGE AnimationAtom FeedGeoJSON
Detalied Best Track (Time Zone = UTC)
Year Month Day Hour Lat. Long. Pressure (hPa) Wind (kt) Class Image Chart
1964 11 14 00 7.5 140.5 1006 0 2 -- Chart
1964 11 14 06 8.0 140.0 1004 0 2 -- Chart
1964 11 14 12 8.5 139.5 1004 0 2 -- Chart
1964 11 14 18 8.5 139.0 1004 0 2 -- Chart
1964 11 15 00 8.5 138.5 1004 0 2 -- Chart
1964 11 15 06 8.0 138.0 1002 0 2 -- Chart
1964 11 15 12 7.5 137.5 1002 0 2 -- Chart
1964 11 15 18 7.0 137.0 1002 0 2 -- Chart
1964 11 16 00 6.5 136.1 998 0 9 -- Chart
1964 11 16 06 6.5 135.3 998 0 9 -- Chart
1964 11 16 12 6.5 134.9 998 0 9 -- Chart
1964 11 16 18 6.6 134.1 996 0 9 -- Chart
1964 11 17 00 7.0 133.5 960 0 9 -- Chart
1964 11 17 06 7.1 132.8 950 0 9 -- Chart
1964 11 17 12 7.2 132.1 940 0 9 -- Chart
1964 11 17 18 7.6 131.2 940 0 9 -- Chart
1964 11 18 00 8.3 130.3 935 0 9 -- Chart
1964 11 18 06 8.7 129.3 915 0 9 -- Chart
1964 11 18 12 9.0 128.2 915 0 9 -- Chart
1964 11 18 18 9.2 127.2 915 0 9 -- Chart
1964 11 19 00 9.5 126.1 920 0 9 -- Chart
1964 11 19 06 10.0 125.0 920 0 9 -- Chart
1964 11 19 12 10.1 124.3 930 0 9 -- Chart
1964 11 19 18 10.4 123.5 940 0 9 -- Chart
1964 11 20 00 10.5 122.7 950 0 9 -- Chart
1964 11 20 06 11.0 122.0 980 0 9 -- Chart
1964 11 20 12 11.2 121.1 994 0 9 -- Chart
1964 11 20 18 11.5 120.1 1000 0 9 -- Chart
1964 11 21 00 12.0 119.1 1004 0 2 -- Chart
1964 11 21 06 12.7 117.9 1002 0 2 -- Chart
Japan Meteorological Agency Best Track Data | Correction Date : 1989-06-01
< Typhoon 196430 1964 Season Typhoon 196432 >

Help